createdAt,value
2017-08-08T00:01:02.808Z,0
2017-08-08T00:02:12.782Z,0
2017-08-08T00:03:22.738Z,0
2017-08-08T00:04:32.390Z,0
2017-08-08T00:05:42.667Z,0
2017-08-08T00:06:52.636Z,0
2017-08-08T00:08:02.910Z,0
2017-08-08T00:09:13.182Z,0
2017-08-08T00:10:23.470Z,0
2017-08-08T00:11:33.747Z,0
2017-08-08T00:12:43.960Z,0
2017-08-08T00:13:53.941Z,0
2017-08-08T00:15:04.579Z,0
2017-08-08T00:16:14.583Z,0
2017-08-08T00:17:24.564Z,0
2017-08-08T00:18:34.784Z,0
2017-08-08T00:19:45.063Z,0
2017-08-08T00:20:55.046Z,0
2017-08-08T00:22:05.023Z,0
2017-08-08T00:23:15.300Z,0
2017-08-08T00:24:25.823Z,0
2017-08-08T00:25:36.102Z,0
2017-08-08T00:26:46.377Z,0
2017-08-08T00:27:56.660Z,0
2017-08-08T00:29:06.935Z,0
2017-08-08T00:30:17.485Z,0
2017-08-08T00:31:27.152Z,0
2017-08-08T00:32:37.417Z,0
2017-08-08T00:33:47.710Z,0
2017-08-08T00:34:57.981Z,0
2017-08-08T00:36:08.510Z,0
2017-08-08T00:37:18.818Z,0
2017-08-08T00:38:29.110Z,0
2017-08-08T00:39:39.388Z,0
2017-08-08T00:40:49.355Z,0
2017-08-08T00:41:59.264Z,0
2017-08-08T00:43:09.254Z,0
2017-08-08T00:44:19.213Z,0
2017-08-08T00:45:29.498Z,0
2017-08-08T00:46:39.469Z,0
2017-08-08T00:47:49.699Z,0
2017-08-08T00:48:59.976Z,0
2017-08-08T00:50:10.269Z,0
2017-08-08T00:51:20.235Z,0
2017-08-08T00:52:30.510Z,0
2017-08-08T00:53:40.425Z,0
2017-08-08T00:54:50.702Z,0
2017-08-08T00:56:00.372Z,0
2017-08-08T00:57:10.647Z,0
2017-08-08T00:58:20.613Z,0
2017-08-08T00:59:31.156Z,0
2017-08-08T01:00:41.459Z,0
2017-08-08T01:01:51.750Z,0
2017-08-08T01:03:01.386Z,0
2017-08-08T01:04:11.377Z,0
2017-08-08T01:05:21.588Z,0
2017-08-08T01:06:31.576Z,0
2017-08-08T01:07:41.539Z,0
2017-08-08T01:08:51.829Z,0
2017-08-08T01:10:02.110Z,0
2017-08-08T01:11:12.315Z,0
2017-08-08T01:12:21.955Z,0
2017-08-08T01:13:31.928Z,0
2017-08-08T01:14:42.214Z,0
2017-08-08T01:15:52.188Z,0
2017-08-08T01:17:02.402Z,0
2017-08-08T01:18:12.366Z,0
2017-08-08T01:19:22.651Z,0
2017-08-08T01:20:32.318Z,0
2017-08-08T01:21:41.977Z,0
2017-08-08T01:22:52.519Z,0
2017-08-08T01:24:02.802Z,0
2017-08-08T01:25:13.100Z,0
2017-08-08T01:26:23.360Z,0
2017-08-08T01:27:33.021Z,0
2017-08-08T01:28:43.238Z,0
2017-08-08T01:29:53.514Z,0
2017-08-08T01:31:03.806Z,0
2017-08-08T01:32:14.078Z,0
2017-08-08T01:33:24.342Z,0
2017-08-08T01:34:34.589Z,0
2017-08-08T01:35:44.867Z,0
2017-08-08T01:36:54.833Z,0
2017-08-08T01:38:05.111Z,0
2017-08-08T01:39:15.058Z,0
2017-08-08T01:40:25.594Z,0
2017-08-08T01:41:35.572Z,0
2017-08-08T01:42:45.847Z,0
2017-08-08T01:43:56.113Z,0
2017-08-08T01:45:06.394Z,0
2017-08-08T01:46:16.605Z,0
2017-08-08T01:47:26.884Z,0
2017-08-08T01:48:37.164Z,0
2017-08-08T01:49:47.438Z,0
2017-08-08T01:50:57.400Z,0
2017-08-08T01:52:08.164Z,0
2017-08-08T01:53:18.142Z,0
2017-08-08T01:54:28.407Z,0
2017-08-08T01:55:38.069Z,0
2017-08-08T01:56:48.349Z,0
2017-08-08T01:57:58.879Z,0
2017-08-08T01:59:08.861Z,0
2017-08-08T02:00:19.142Z,0
2017-08-08T02:01:29.112Z,0
2017-08-08T02:02:39.075Z,0
2017-08-08T02:03:49.618Z,0
2017-08-08T02:04:59.294Z,0
2017-08-08T02:06:08.970Z,0
2017-08-08T02:07:19.248Z,0
2017-08-08T02:08:29.523Z,0
2017-08-08T02:09:39.747Z,0
2017-08-08T02:10:50.020Z,0
2017-08-08T02:12:00.286Z,0
2017-08-08T02:13:10.267Z,0
2017-08-08T02:14:20.547Z,0
2017-08-08T02:15:30.769Z,0
2017-08-08T02:16:41.037Z,0
2017-08-08T02:17:51.020Z,0
2017-08-08T02:19:01.297Z,0
2017-08-08T02:20:11.577Z,0
2017-08-08T02:21:22.119Z,0
2017-08-08T02:22:32.387Z,0
2017-08-08T02:23:42.676Z,0
2017-08-08T02:24:52.024Z,0
2017-08-08T02:26:01.996Z,0
2017-08-08T02:27:12.530Z,0
2017-08-08T02:28:22.796Z,0
2017-08-08T02:29:32.770Z,0
2017-08-08T02:30:43.073Z,0
2017-08-08T02:31:53.377Z,0
2017-08-08T02:33:03.898Z,0
2017-08-08T02:34:13.572Z,0
2017-08-08T02:35:23.551Z,0
2017-08-08T02:36:33.208Z,0
2017-08-08T02:37:43.174Z,0
2017-08-08T02:38:53.397Z,0
2017-08-08T02:40:03.678Z,0
2017-08-08T02:41:13.954Z,0
2017-08-08T02:42:23.925Z,0
2017-08-08T02:43:34.240Z,0
2017-08-08T02:44:44.775Z,0
2017-08-08T02:45:55.084Z,0
2017-08-08T02:47:05.358Z,0
2017-08-08T02:48:15.346Z,0
2017-08-08T02:49:25.306Z,0
2017-08-08T02:50:35.841Z,0
2017-08-08T02:51:45.806Z,0
2017-08-08T02:52:55.786Z,0
2017-08-08T02:54:05.744Z,0
2017-08-08T02:55:16.032Z,0
2017-08-08T02:56:26.260Z,0
2017-08-08T02:57:36.219Z,0
2017-08-08T02:58:46.180Z,0
2017-08-08T02:59:56.459Z,0
2017-08-08T03:01:06.424Z,0
2017-08-08T03:02:16.951Z,0
2017-08-08T03:03:27.222Z,0
2017-08-08T03:04:37.488Z,0
2017-08-08T03:05:47.462Z,0
2017-08-08T03:06:57.772Z,0
2017-08-08T03:08:08.295Z,0
2017-08-08T03:09:18.570Z,0
2017-08-08T03:10:28.223Z,0
2017-08-08T03:11:37.862Z,0
2017-08-08T03:12:48.140Z,0
2017-08-08T03:13:58.345Z,0
2017-08-08T03:15:08.307Z,0
2017-08-08T03:16:18.280Z,0
2017-08-08T03:17:28.546Z,0
2017-08-08T03:18:38.536Z,0
2017-08-08T03:19:49.083Z,0
2017-08-08T03:20:59.035Z,0
2017-08-08T03:22:08.704Z,0
2017-08-08T03:23:18.996Z,0
2017-08-08T03:24:29.289Z,0
2017-08-08T03:25:39.827Z,0
2017-08-08T03:26:49.803Z,5
2017-08-08T03:28:00.096Z,5
2017-08-08T03:29:10.054Z,5
2017-08-08T03:30:20.040Z,5
2017-08-08T03:31:30.630Z,5
2017-08-08T03:32:40.620Z,5
2017-08-08T03:33:50.888Z,10
2017-08-08T03:35:01.179Z,10
2017-08-08T03:36:10.867Z,10
2017-08-08T03:37:21.398Z,10
2017-08-08T03:38:31.696Z,15
2017-08-08T03:39:41.658Z,15
2017-08-08T03:40:51.939Z,15
2017-08-08T03:42:01.914Z,15
2017-08-08T03:43:12.204Z,20
2017-08-08T03:44:22.483Z,20
2017-08-08T03:45:32.772Z,20
2017-08-08T03:46:42.749Z,25
2017-08-08T03:47:53.012Z,25
2017-08-08T03:49:03.240Z,30
2017-08-08T03:50:13.518Z,30
2017-08-08T03:51:23.472Z,35
2017-08-08T03:52:33.781Z,35
2017-08-08T03:53:44.067Z,35
2017-08-08T03:54:54.598Z,40
2017-08-08T03:56:04.863Z,40
2017-08-08T03:57:15.134Z,45
2017-08-08T03:58:25.416Z,45
2017-08-08T03:59:35.386Z,50
2017-08-08T04:00:45.987Z,55
2017-08-08T04:01:56.264Z,55
2017-08-08T04:03:06.219Z,60
2017-08-08T04:04:16.481Z,60
2017-08-08T04:05:26.746Z,60
2017-08-08T04:06:37.020Z,65
2017-08-08T04:07:47.013Z,70
2017-08-08T04:08:56.976Z,75
2017-08-08T04:10:06.933Z,75
2017-08-08T04:11:16.904Z,80
2017-08-08T04:12:27.486Z,80
2017-08-08T04:13:37.460Z,85
2017-08-08T04:14:47.416Z,90
2017-08-08T04:15:57.710Z,95
2017-08-08T04:17:07.988Z,100
2017-08-08T04:18:18.522Z,100
2017-08-08T04:19:28.811Z,105
2017-08-08T04:20:38.473Z,110
2017-08-08T04:21:48.775Z,110
2017-08-08T04:22:59.070Z,115
2017-08-08T04:24:09.296Z,115
2017-08-08T04:25:19.574Z,120
2017-08-08T04:26:29.228Z,120
2017-08-08T04:27:39.522Z,120
2017-08-08T04:28:49.485Z,125
2017-08-08T04:30:00.016Z,125
2017-08-08T04:31:09.699Z,125
2017-08-08T04:32:19.978Z,130
2017-08-08T04:33:30.272Z,130
2017-08-08T04:34:40.544Z,130
2017-08-08T04:35:50.494Z,130
2017-08-08T04:37:00.469Z,135
2017-08-08T04:38:10.423Z,135
2017-08-08T04:39:20.919Z,135
2017-08-08T04:40:31.211Z,140
2017-08-08T04:41:41.483Z,140
2017-08-08T04:42:51.443Z,145
2017-08-08T04:44:01.408Z,145
2017-08-08T04:45:11.385Z,145
2017-08-08T04:46:21.345Z,150
2017-08-08T04:47:31.647Z,150
2017-08-08T04:48:41.926Z,155
2017-08-08T04:49:51.580Z,155
2017-08-08T04:51:01.864Z,160
2017-08-08T04:52:11.838Z,160
2017-08-08T04:53:22.373Z,165
2017-08-08T04:54:32.652Z,165
2017-08-08T04:55:42.938Z,170
2017-08-08T04:56:52.906Z,175
2017-08-08T04:58:02.549Z,175
2017-08-08T04:59:12.757Z,180
2017-08-08T05:00:22.414Z,185
2017-08-08T05:01:32.387Z,190
2017-08-08T05:02:42.345Z,195
2017-08-08T05:03:51.692Z,200
2017-08-08T05:05:02.277Z,210
2017-08-08T05:06:12.563Z,210
2017-08-08T05:07:22.220Z,215
2017-08-08T05:08:32.486Z,220
2017-08-08T05:09:42.771Z,225
2017-08-08T05:10:53.319Z,225
2017-08-08T05:12:03.602Z,230
2017-08-08T05:13:13.576Z,230
2017-08-08T05:14:22.924Z,235
2017-08-08T05:15:33.212Z,235
2017-08-08T05:16:43.420Z,240
2017-08-08T05:17:53.687Z,235
2017-08-08T05:19:03.654Z,235
2017-08-08T05:20:13.316Z,235
2017-08-08T05:21:23.589Z,235
2017-08-08T05:22:34.111Z,235
2017-08-08T05:23:44.097Z,230
2017-08-08T05:24:54.366Z,230
2017-08-08T05:26:04.353Z,230
2017-08-08T05:27:14.626Z,230
2017-08-08T05:28:25.192Z,230
2017-08-08T05:29:35.468Z,230
2017-08-08T05:30:45.753Z,230
2017-08-08T05:31:56.047Z,235
2017-08-08T05:33:06.351Z,235
2017-08-08T05:34:16.876Z,240
2017-08-08T05:35:26.854Z,240
2017-08-08T05:36:36.495Z,245
2017-08-08T05:37:46.150Z,250
2017-08-08T05:38:56.124Z,255
2017-08-08T05:40:06.638Z,255
2017-08-08T05:41:16.603Z,260
2017-08-08T05:42:26.874Z,265
2017-08-08T05:43:36.849Z,265
2017-08-08T05:44:46.500Z,270
2017-08-08T05:45:56.729Z,270
2017-08-08T05:47:06.722Z,275
2017-08-08T05:48:16.701Z,280
2017-08-08T05:49:26.655Z,290
2017-08-08T05:50:36.940Z,300
2017-08-08T05:51:46.837Z,305
2017-08-08T05:52:57.119Z,315
2017-08-08T05:54:07.087Z,320
2017-08-08T05:55:17.361Z,325
2017-08-08T05:56:27.032Z,330
2017-08-08T05:57:37.559Z,340
2017-08-08T05:58:47.834Z,345
2017-08-08T05:59:58.099Z,345
2017-08-08T06:01:08.069Z,345
2017-08-08T06:02:18.350Z,345
2017-08-08T06:03:28.607Z,340
2017-08-08T06:04:38.893Z,340
2017-08-08T06:05:48.860Z,335
2017-08-08T06:06:59.133Z,325
2017-08-08T06:08:09.099Z,325
2017-08-08T06:09:19.309Z,325
2017-08-08T06:10:29.264Z,325
2017-08-08T06:11:39.256Z,325
2017-08-08T06:12:49.524Z,320
2017-08-08T06:13:59.817Z,315
2017-08-08T06:15:10.394Z,315
2017-08-08T06:16:20.360Z,310
2017-08-08T06:17:30.631Z,310
2017-08-08T06:18:40.334Z,315
2017-08-08T06:19:50.615Z,320
2017-08-08T06:21:00.836Z,325
2017-08-08T06:22:11.133Z,325
2017-08-08T06:23:21.110Z,325
2017-08-08T06:24:31.391Z,325
2017-08-08T06:25:41.672Z,325
2017-08-08T06:26:51.579Z,330
2017-08-08T06:28:01.871Z,330
2017-08-08T06:29:12.150Z,325
2017-08-08T06:30:22.427Z,325
2017-08-08T06:31:32.391Z,325
2017-08-08T06:32:42.350Z,330
2017-08-08T06:33:52.312Z,330
2017-08-08T06:35:02.583Z,335
2017-08-08T06:36:12.553Z,335
2017-08-08T06:37:22.829Z,335
2017-08-08T06:38:33.101Z,345
2017-08-08T06:39:43.419Z,350
2017-08-08T06:40:53.714Z,355
2017-08-08T06:42:03.987Z,360
2017-08-08T06:43:13.963Z,355
2017-08-08T06:44:24.173Z,360
2017-08-08T06:45:34.485Z,365
2017-08-08T06:46:44.775Z,365
2017-08-08T06:47:55.060Z,375
2017-08-08T06:49:05.324Z,380
2017-08-08T06:50:15.882Z,385
2017-08-08T06:51:25.856Z,385
2017-08-08T06:52:35.834Z,385
2017-08-08T06:53:45.802Z,385
2017-08-08T06:54:55.761Z,400
2017-08-08T06:56:06.346Z,405
2017-08-08T06:57:16.653Z,405
2017-08-08T06:58:26.644Z,405
2017-08-08T06:59:36.914Z,410
2017-08-08T07:00:47.193Z,415
2017-08-08T07:01:57.709Z,420
2017-08-08T07:03:08.013Z,425
2017-08-08T07:04:18.293Z,430
2017-08-08T07:05:28.583Z,430
2017-08-08T07:06:38.864Z,430
2017-08-08T07:07:49.397Z,430
2017-08-08T07:08:59.373Z,435
2017-08-08T07:10:09.667Z,445
2017-08-08T07:11:19.951Z,455
2017-08-08T07:12:29.933Z,455
2017-08-08T07:13:40.217Z,460
2017-08-08T07:14:50.481Z,465
2017-08-08T07:16:00.765Z,460
2017-08-08T07:17:10.739Z,460
2017-08-08T07:18:20.712Z,460
2017-08-08T07:19:30.935Z,455
2017-08-08T07:20:40.898Z,450
2017-08-08T07:21:51.179Z,445
2017-08-08T07:23:01.143Z,445
2017-08-08T07:24:11.124Z,440
2017-08-08T07:25:21.354Z,430
2017-08-08T07:26:31.325Z,430
2017-08-08T07:27:41.615Z,425
2017-08-08T07:28:51.907Z,415
2017-08-08T07:30:01.887Z,410
2017-08-08T07:31:12.428Z,405
2017-08-08T07:32:22.093Z,405
2017-08-08T07:33:32.375Z,410
2017-08-08T07:34:42.640Z,410
2017-08-08T07:35:52.927Z,410
2017-08-08T07:37:03.458Z,410
2017-08-08T07:38:13.427Z,410
2017-08-08T07:39:23.735Z,405
2017-08-08T07:40:34.014Z,400
2017-08-08T07:41:44.288Z,395
2017-08-08T07:42:54.824Z,400
2017-08-08T07:44:05.088Z,400
2017-08-08T07:45:15.072Z,400
2017-08-08T07:46:25.031Z,400
2017-08-08T07:47:35.305Z,395
2017-08-08T07:48:45.247Z,395
2017-08-08T07:49:55.930Z,400
2017-08-08T07:51:06.209Z,400
2017-08-08T07:52:16.197Z,400
2017-08-08T07:53:26.177Z,395
2017-08-08T07:54:36.704Z,395
2017-08-08T07:55:46.991Z,400
2017-08-08T07:56:57.270Z,405
2017-08-08T07:58:07.227Z,410
2017-08-08T07:59:16.897Z,420
2017-08-08T08:00:27.416Z,430
2017-08-08T08:01:37.221Z,440
2017-08-08T08:02:47.521Z,445
2017-08-08T08:03:57.500Z,455
2017-08-08T08:05:07.788Z,465
2017-08-08T08:06:18.376Z,470
2017-08-08T08:07:28.675Z,475
2017-08-08T08:08:38.665Z,485
2017-08-08T08:09:48.647Z,495
2017-08-08T08:10:58.919Z,495
2017-08-08T08:12:09.143Z,510
2017-08-08T08:13:19.431Z,520
2017-08-08T08:14:29.401Z,530
2017-08-08T08:15:39.683Z,535
2017-08-08T08:16:49.642Z,540
2017-08-08T08:18:00.164Z,545
2017-08-08T08:19:10.440Z,555
2017-08-08T08:20:20.726Z,565
2017-08-08T08:21:30.694Z,585
2017-08-08T08:22:40.991Z,580
2017-08-08T08:23:51.244Z,590
2017-08-08T08:25:01.524Z,595
2017-08-08T08:26:11.507Z,600
2017-08-08T08:27:21.480Z,610
2017-08-08T08:28:31.756Z,615
2017-08-08T08:29:41.990Z,620
2017-08-08T08:30:51.950Z,620
2017-08-08T08:32:01.929Z,705
2017-08-08T08:33:11.914Z,915
2017-08-08T08:34:22.180Z,975
2017-08-08T08:35:32.722Z,1005
2017-08-08T08:36:43.019Z,1085
2017-08-08T08:37:53.300Z,1075
2017-08-08T08:39:02.957Z,1115
2017-08-08T08:40:13.246Z,1015
2017-08-08T08:41:23.785Z,920
2017-08-08T08:42:33.770Z,1095
2017-08-08T08:43:44.069Z,1175
2017-08-08T08:44:54.364Z,1225
2017-08-08T08:46:04.658Z,1245
2017-08-08T08:47:14.952Z,1270
2017-08-08T08:48:25.155Z,1265
2017-08-08T08:49:35.469Z,1230
2017-08-08T08:50:45.769Z,1270
2017-08-08T08:51:55.751Z,1195
2017-08-08T08:53:05.675Z,1235
2017-08-08T08:54:15.948Z,1380
2017-08-08T08:55:25.925Z,1295
2017-08-08T08:56:35.590Z,1325
2017-08-08T08:57:45.899Z,1395
2017-08-08T08:58:56.121Z,1410
2017-08-08T09:00:06.411Z,1570
2017-08-08T09:01:16.700Z,1460
2017-08-08T09:02:26.996Z,1425
2017-08-08T09:03:37.281Z,1520
2017-08-08T09:04:47.853Z,1520
2017-08-08T09:05:57.821Z,1550
2017-08-08T09:07:07.795Z,1475
2017-08-08T09:08:17.774Z,1460
2017-08-08T09:09:27.749Z,1150
2017-08-08T09:10:37.980Z,1315
2017-08-08T09:11:47.632Z,1230
2017-08-08T09:12:57.909Z,1010
2017-08-08T09:14:08.199Z,1365
2017-08-08T09:15:17.873Z,1485
2017-08-08T09:16:28.405Z,1445
2017-08-08T09:17:38.068Z,1740
2017-08-08T09:18:48.065Z,1670
2017-08-08T09:19:58.357Z,1565
2017-08-08T09:21:08.658Z,1525
2017-08-08T09:22:18.905Z,1495
2017-08-08T09:23:29.229Z,1715
2017-08-08T09:24:39.214Z,1820
2017-08-08T09:25:49.491Z,1725
2017-08-08T09:26:59.174Z,1715
2017-08-08T09:28:09.419Z,1665
2017-08-08T09:29:19.959Z,1620
2017-08-08T09:30:30.229Z,1825
2017-08-08T09:31:40.210Z,1855
2017-08-08T09:32:50.492Z,1790
2017-08-08T09:34:01.540Z,1810
2017-08-08T09:35:11.842Z,1885
2017-08-08T09:36:22.129Z,1760
2017-08-08T09:37:32.107Z,1725
2017-08-08T09:38:42.402Z,1825
2017-08-08T09:39:52.329Z,1945
2017-08-08T09:41:02.325Z,2020
2017-08-08T09:42:12.621Z,2080
2017-08-08T09:43:22.912Z,2060
2017-08-08T09:44:33.217Z,1985
2017-08-08T09:45:43.759Z,2035
2017-08-08T09:46:53.739Z,2045
2017-08-08T09:48:03.708Z,2035
2017-08-08T09:49:14.017Z,1925
2017-08-08T09:50:24.332Z,2075
2017-08-08T09:51:34.566Z,2100
2017-08-08T09:52:44.850Z,2050
2017-08-08T09:53:54.821Z,2075
2017-08-08T09:55:05.122Z,2115
2017-08-08T09:56:15.411Z,2175
2017-08-08T09:57:25.966Z,2125
2017-08-08T09:58:35.325Z,2065
2017-08-08T09:59:45.630Z,1935
2017-08-08T10:00:55.930Z,1835
2017-08-08T10:02:06.237Z,1670
2017-08-08T10:03:16.154Z,1725
2017-08-08T10:04:26.453Z,1810
2017-08-08T10:05:36.443Z,1735
2017-08-08T10:06:46.733Z,1735
2017-08-08T10:07:57.027Z,1740
2017-08-08T10:09:07.585Z,1725
2017-08-08T10:10:17.266Z,1715
2017-08-08T10:11:27.546Z,1820
2017-08-08T10:12:37.539Z,1845
2017-08-08T10:13:47.845Z,1840
2017-08-08T10:14:57.756Z,1880
2017-08-08T10:16:08.044Z,1840
2017-08-08T10:17:18.340Z,1905
2017-08-08T10:18:28.032Z,1890
2017-08-08T10:19:38.332Z,1995
2017-08-08T10:20:48.582Z,1990
2017-08-08T10:21:58.268Z,1970
2017-08-08T10:23:08.260Z,2065
2017-08-08T10:24:18.559Z,2115
2017-08-08T10:25:28.536Z,2235
2017-08-08T10:26:39.079Z,2215
2017-08-08T10:27:49.063Z,2305
2017-08-08T10:28:59.369Z,2165
2017-08-08T10:30:09.659Z,2130
2017-08-08T10:31:19.658Z,2160
2017-08-08T10:32:29.885Z,2040
2017-08-08T10:33:40.174Z,2175
2017-08-08T10:34:50.486Z,2275
2017-08-08T10:36:00.782Z,2305
2017-08-08T10:37:10.764Z,2490
2017-08-08T10:38:20.995Z,2565
2017-08-08T10:39:31.309Z,2480
2017-08-08T10:40:41.599Z,2380
2017-08-08T10:41:51.894Z,2360
2017-08-08T10:43:01.576Z,2450
2017-08-08T10:44:12.118Z,2485
2017-08-08T10:45:22.423Z,2545
2017-08-08T10:46:32.087Z,2580
2017-08-08T10:47:42.073Z,2080
2017-08-08T10:48:52.393Z,1540
2017-08-08T10:50:02.635Z,2125
2017-08-08T10:51:12.632Z,1835
2017-08-08T10:52:22.935Z,2465
2017-08-08T10:53:32.938Z,2310
2017-08-08T10:54:42.608Z,1910
2017-08-08T10:55:52.831Z,1975
2017-08-08T10:57:03.104Z,1955
2017-08-08T10:58:13.394Z,1930
2017-08-08T10:59:23.366Z,1950
2017-08-08T11:00:33.655Z,2150
2017-08-08T11:01:44.202Z,2665
2017-08-08T11:02:54.480Z,2690
2017-08-08T11:04:04.778Z,2380
2017-08-08T11:05:14.776Z,2475
2017-08-08T11:06:25.063Z,2695
2017-08-08T11:07:35.617Z,2525
2017-08-08T11:08:45.292Z,2470
2017-08-08T11:09:55.260Z,2315
2017-08-08T11:11:05.581Z,2170
2017-08-08T11:12:15.890Z,2410
2017-08-08T11:13:26.426Z,2185
2017-08-08T11:14:36.722Z,2165
2017-08-08T11:15:46.708Z,2075
2017-08-08T11:16:56.368Z,2015
2017-08-08T11:18:06.679Z,2115
2017-08-08T11:19:16.915Z,2195
2017-08-08T11:20:27.204Z,2475
2017-08-08T11:21:37.179Z,2310
2017-08-08T11:22:47.468Z,2415
2017-08-08T11:23:57.455Z,2795
2017-08-08T11:25:07.987Z,2710
2017-08-08T11:26:18.310Z,2855
2017-08-08T11:27:28.297Z,2850
2017-08-08T11:28:38.580Z,2645
2017-08-08T11:29:48.887Z,2810
2017-08-08T11:30:59.416Z,2625
2017-08-08T11:32:08.780Z,2625
2017-08-08T11:33:18.759Z,2380
2017-08-08T11:34:29.063Z,2170
2017-08-08T11:35:39.065Z,1890
2017-08-08T11:36:49.605Z,1675
2017-08-08T11:37:59.577Z,1805
2017-08-08T11:39:09.859Z,1790
2017-08-08T11:40:20.167Z,1605
2017-08-08T11:41:30.145Z,1420
2017-08-08T11:42:40.385Z,1715
2017-08-08T11:43:50.359Z,1790
2017-08-08T11:45:00.341Z,1500
2017-08-08T11:46:10.313Z,1395
2017-08-08T11:47:19.988Z,1370
2017-08-08T11:48:30.520Z,1270
2017-08-08T11:49:40.213Z,1325
2017-08-08T11:50:49.902Z,1375
2017-08-08T11:52:00.199Z,1575
2017-08-08T11:53:10.478Z,1755
2017-08-08T11:54:21.005Z,1630
2017-08-08T11:55:31.284Z,1585
2017-08-08T11:56:41.577Z,1580
2017-08-08T11:57:51.876Z,1510
2017-08-08T11:59:02.170Z,1495
2017-08-08T12:00:12.706Z,1565
2017-08-08T12:01:22.999Z,1645
2017-08-08T12:02:32.993Z,1600
2017-08-08T12:03:43.288Z,1605
2017-08-08T12:04:53.574Z,1745
2017-08-08T12:06:04.161Z,1870
2017-08-08T12:07:13.836Z,1910
2017-08-08T12:08:23.813Z,1935
2017-08-08T12:09:33.480Z,1990
2017-08-08T12:10:43.446Z,1915
2017-08-08T12:11:53.742Z,1865
2017-08-08T12:13:04.028Z,1720
2017-08-08T12:14:14.012Z,2165
2017-08-08T12:15:23.995Z,2255
2017-08-08T12:16:34.288Z,2005
2017-08-08T12:17:44.818Z,2190
2017-08-08T12:18:55.086Z,1600
2017-08-08T12:20:05.445Z,1485
2017-08-08T12:21:15.721Z,2675
2017-08-08T12:22:26.013Z,3460
2017-08-08T12:23:36.600Z,3060
2017-08-08T12:24:46.579Z,3680
2017-08-08T12:25:56.568Z,1755
2017-08-08T12:27:06.552Z,2115
2017-08-08T12:28:16.558Z,1880
2017-08-08T12:29:27.148Z,1935
2017-08-08T12:30:37.429Z,2915
2017-08-08T12:31:47.435Z,3335
2017-08-08T12:32:57.724Z,2835
2017-08-08T12:34:08.010Z,3495
2017-08-08T12:35:18.610Z,3315
2017-08-08T12:36:28.909Z,2420
2017-08-08T12:37:39.202Z,3070
2017-08-08T12:38:49.178Z,2995
2017-08-08T12:39:59.478Z,2965
2017-08-08T12:41:10.064Z,2835
2017-08-08T12:42:20.071Z,2785
2017-08-08T12:43:30.062Z,2795
2017-08-08T12:44:40.349Z,2765
2017-08-08T12:45:50.638Z,2815
2017-08-08T12:47:00.854Z,2830
2017-08-08T12:48:11.179Z,2940
2017-08-08T12:49:21.497Z,3110
2017-08-08T12:50:31.486Z,2475
2017-08-08T12:51:41.471Z,3305
2017-08-08T12:52:52.074Z,3210
2017-08-08T12:54:02.046Z,3475
2017-08-08T12:55:12.039Z,3435
2017-08-08T12:56:22.329Z,3440
2017-08-08T12:57:32.633Z,3080
2017-08-08T12:58:42.907Z,3510
2017-08-08T12:59:52.893Z,3605
2017-08-08T13:01:03.194Z,3445
2017-08-08T13:02:13.488Z,3550
2017-08-08T13:03:23.799Z,3460
2017-08-08T13:04:34.398Z,3375
2017-08-08T13:05:44.387Z,3615
2017-08-08T13:06:54.682Z,3025
2017-08-08T13:08:04.663Z,2615
2017-08-08T13:09:14.945Z,3340
2017-08-08T13:10:25.538Z,3465
2017-08-08T13:11:35.515Z,3455
2017-08-08T13:12:45.510Z,3460
2017-08-08T13:13:55.185Z,3055
2017-08-08T13:15:05.205Z,3360
2017-08-08T13:16:15.485Z,3340
2017-08-08T13:17:25.476Z,3325
2017-08-08T13:18:35.460Z,3450
2017-08-08T13:19:45.749Z,3250
2017-08-08T13:20:56.045Z,3390
2017-08-08T13:22:06.627Z,3485
2017-08-08T13:23:16.613Z,3310
2017-08-08T13:24:26.594Z,3300
2017-08-08T13:25:36.908Z,3345
2017-08-08T13:26:47.199Z,3625
2017-08-08T13:27:57.200Z,4045
2017-08-08T13:29:07.188Z,3495
2017-08-08T13:30:17.479Z,3300
2017-08-08T13:31:27.778Z,3410
2017-08-08T13:32:38.074Z,3520
2017-08-08T13:33:48.675Z,3280
2017-08-08T13:34:58.972Z,3520
2017-08-08T13:36:08.965Z,3320
2017-08-08T13:37:19.250Z,3270
2017-08-08T13:38:29.556Z,3215
2017-08-08T13:39:40.084Z,3140
2017-08-08T13:40:50.081Z,3180
2017-08-08T13:42:00.097Z,3075
2017-08-08T13:43:10.393Z,2985
2017-08-08T13:44:20.701Z,3190
2017-08-08T13:45:31.254Z,2920
2017-08-08T13:46:41.563Z,3150
2017-08-08T13:47:51.537Z,3325
2017-08-08T13:49:01.498Z,3200
2017-08-08T13:50:11.802Z,3545
2017-08-08T13:51:22.403Z,3570
2017-08-08T13:52:32.696Z,3340
2017-08-08T13:53:42.702Z,3225
2017-08-08T13:54:52.985Z,3045
2017-08-08T13:56:03.278Z,3020
2017-08-08T13:57:13.867Z,3225
2017-08-08T13:58:23.862Z,3270
2017-08-08T13:59:33.850Z,3255
2017-08-08T14:00:44.149Z,3240
2017-08-08T14:01:53.819Z,3305
2017-08-08T14:03:04.376Z,3300
2017-08-08T14:04:14.673Z,3230
2017-08-08T14:05:25.128Z,3320
2017-08-08T14:06:35.118Z,3365
2017-08-08T14:07:45.127Z,3360
2017-08-08T14:08:55.676Z,3310
2017-08-08T14:10:05.657Z,3305
2017-08-08T14:11:15.342Z,1410
2017-08-08T14:12:25.644Z,885
2017-08-08T14:13:35.960Z,3210
2017-08-08T14:14:46.246Z,3310
2017-08-08T14:15:56.559Z,3255
2017-08-08T14:17:05.932Z,2910
2017-08-08T14:18:16.232Z,3175
2017-08-08T14:19:26.206Z,3190
2017-08-08T14:20:36.451Z,3135
2017-08-08T14:21:46.740Z,2575
2017-08-08T14:22:56.109Z,3000
2017-08-08T14:24:06.411Z,3375
2017-08-08T14:25:16.716Z,3325
2017-08-08T14:26:26.651Z,3215
2017-08-08T14:27:36.963Z,3225
2017-08-08T14:28:47.277Z,3260
2017-08-08T14:29:57.609Z,3160
2017-08-08T14:31:07.908Z,3135
2017-08-08T14:32:18.188Z,3130
2017-08-08T14:33:28.489Z,3005
2017-08-08T14:34:38.794Z,2970
2017-08-08T14:35:49.088Z,2765
2017-08-08T14:36:59.390Z,2175
2017-08-08T14:38:10.042Z,2000
2017-08-08T14:39:20.320Z,1440
2017-08-08T14:40:30.647Z,1265
2017-08-08T14:41:40.946Z,1435
2017-08-08T14:42:51.244Z,1940
2017-08-08T14:44:01.214Z,1555
2017-08-08T14:45:11.521Z,1285
2017-08-08T14:46:21.821Z,1185
2017-08-08T14:47:31.500Z,1105
2017-08-08T14:48:41.478Z,1130
2017-08-08T14:49:51.831Z,1105
2017-08-08T14:51:02.135Z,1260
2017-08-08T14:52:12.418Z,1715
2017-08-08T14:53:22.392Z,3020
2017-08-08T14:54:32.696Z,3065
2017-08-08T14:55:43.239Z,2800
2017-08-08T14:56:53.528Z,3210
2017-08-08T14:58:03.825Z,3245
2017-08-08T14:59:14.138Z,3240
2017-08-08T15:00:24.451Z,2925
2017-08-08T15:01:34.737Z,2090
2017-08-08T15:02:45.018Z,2775
2017-08-08T15:03:54.696Z,2710
2017-08-08T15:05:04.984Z,2625
2017-08-08T15:06:15.295Z,2585
2017-08-08T15:07:25.574Z,2800
2017-08-08T15:08:35.549Z,2845
2017-08-08T15:09:45.839Z,2895
2017-08-08T15:10:56.132Z,2920
2017-08-08T15:12:06.413Z,2910
2017-08-08T15:13:16.967Z,2835
2017-08-08T15:14:27.267Z,2765
2017-08-08T15:15:37.236Z,2765
2017-08-08T15:16:47.534Z,2735
2017-08-08T15:17:57.823Z,2705
2017-08-08T15:19:08.050Z,2595
2017-08-08T15:20:18.044Z,2635
2017-08-08T15:21:28.346Z,2475
2017-08-08T15:22:38.649Z,2280
2017-08-08T15:23:48.649Z,2080
2017-08-08T15:24:59.214Z,2240
2017-08-08T15:26:09.540Z,1865
2017-08-08T15:27:19.855Z,1725
2017-08-08T15:28:30.162Z,2190
2017-08-08T15:29:40.455Z,2210
2017-08-08T15:30:51.056Z,2205
2017-08-08T15:32:01.356Z,2155
2017-08-08T15:33:11.668Z,1785
2017-08-08T15:34:21.661Z,2065
2017-08-08T15:35:31.946Z,2095
2017-08-08T15:36:42.481Z,1605
2017-08-08T15:37:52.456Z,1635
2017-08-08T15:39:02.470Z,1250
2017-08-08T15:40:12.781Z,1235
2017-08-08T15:41:23.063Z,1205
2017-08-08T15:42:33.657Z,1540
2017-08-08T15:43:43.646Z,1245
2017-08-08T15:44:53.940Z,1265
2017-08-08T15:46:04.237Z,2220
2017-08-08T15:47:14.530Z,1400
2017-08-08T15:48:25.129Z,1615
2017-08-08T15:49:35.439Z,1475
2017-08-08T15:50:45.433Z,1735
2017-08-08T15:51:55.722Z,1675
2017-08-08T15:53:05.402Z,1640
2017-08-08T15:54:15.929Z,1205
2017-08-08T15:55:25.926Z,920
2017-08-08T15:56:36.224Z,960
2017-08-08T15:57:46.762Z,925
2017-08-08T15:58:57.077Z,795
2017-08-08T16:00:07.713Z,830
2017-08-08T16:01:18.006Z,745
2017-08-08T16:02:28.287Z,725
2017-08-08T16:03:38.586Z,705
2017-08-08T16:04:48.876Z,675
2017-08-08T16:05:59.472Z,655
2017-08-08T16:07:09.756Z,695